Flight Track Log - Related Links

Times and Time Zones

All times are in EDT time to prevent confusion due to time zone crossing. See the UAL3272 flight status page for this flight to view local times or setup timezone preferences in your user account.

Time Position Orientation Groundspeed Altitude Reporting Facility
EDT Latitude Longitude Course Direction KTS MPH feet Rate Location/Type
Thu 06:21:29 AM 43.6833 -79.5667 47° Northeast 150 173 1,900  Level Toronto Center
Thu 06:22:29 AM 43.7167 -79.5167 47° Northeast 190 219 4,400 2,350 Climbing Toronto Center
Thu 06:23:29 AM 43.7000 -79.4500 109° East 240 276 6,600 1,966 Climbing Toronto Center
Thu 06:24:28 AM 43.6667 -79.3833 125° Southeast 260 299 8,300 2,118 Climbing Toronto Center
Thu 06:25:28 AM 43.6000 -79.4333 209° Southwest 260 299 10,800 1,950 Climbing Toronto Center
Thu 06:26:28 AM 43.5167 -79.4667 196° South 290 334 12,200 1,150 Climbing Toronto Center
Thu 06:27:28 AM 43.4500 -79.5167 209° Southwest 320 368 13,100 1,000 Climbing Toronto Center
Thu 06:28:28 AM 43.3500 -79.5667 200° South 350 403 14,200 1,250 Climbing Toronto Center
Thu 06:29:28 AM 43.2667 -79.6167 204° Southwest 360 414 15,600 1,400 Climbing Toronto Center
Thu 06:30:28 AM 43.1667 -79.6500 194° South 350 403 17,000 1,500 Climbing Toronto Center
Thu 06:31:28 AM 43.0667 -79.7000 200° South 340 391 18,600 1,488 Climbing Toronto Center
Thu 06:32:29 AM 43.0000 -79.7500 209° Southwest 340 391 20,000 1,537 Climbing Toronto Center
Thu 06:33:29 AM 42.9000 -79.8167 206° Southwest 340 391 21,700 1,500 Climbing Toronto Center
Thu 06:34:09 AM 42.8622 -79.8497 213° Southwest 343 395 22,500 1,440 Climbing Cleveland Center
Thu 06:35:09 AM 42.7769 -79.8958 202° Southwest 343 395 24,100 1,600 Climbing Cleveland Center
Thu 06:36:09 AM 42.6878 -79.9447 202° Southwest 348 400 25,700 950 Climbing Cleveland Center
Thu 06:37:09 AM 42.5903 -80.0192 209° Southwest 363 418 26,000 150 Climbing Cleveland Center
Thu 06:38:09 AM 42.5072 -80.1100 219° Southwest 374 430 26,000  Level Cleveland Center
Thu 06:39:09 AM 42.4219 -80.2033 219° Southwest 393 452 26,000  Level Cleveland Center
Thu 06:40:09 AM 42.3347 -80.2967 218° Southwest 405 466 26,000  Level Cleveland Center
Thu 06:41:09 AM 42.2453 -80.3897 218° Southwest 405 466 26,000  Level Cleveland Center
Thu 06:42:09 AM 42.1725 -80.4739 221° Southwest 400 460 26,000 -200 Level Cleveland Center
Thu 06:43:09 AM 42.0892 -80.5608 218° Southwest 395 455 25,600 -1,100 Descending Cleveland Center
Thu 06:44:09 AM 42.0078 -80.6475 218° Southwest 385 443 23,800 -2,200 Descending Cleveland Center
Thu 06:45:09 AM 41.9328 -80.7256 218° Southwest 362 417 21,200 -2,400 Descending Cleveland Center
Thu 06:46:09 AM 41.8556 -80.8089 219° Southwest 362 417 19,000 -2,200 Descending Cleveland Center
Thu 06:47:09 AM 41.7803 -80.8894 219° Southwest 352 405 16,800 -2,100 Descending Cleveland Center
Thu 06:48:09 AM 41.7008 -80.9697 217° Southwest 342 394 14,800 -2,000 Descending Cleveland Center
Thu 06:49:09 AM 41.6317 -81.0442 219° Southwest 336 387 12,800 -2,000 Descending Cleveland Center
Thu 06:50:09 AM 41.5606 -81.1186 218° Southwest 329 379 10,800 -1,450 Descending Cleveland Center
Thu 06:51:09 AM 41.5100 -81.2042 232° Southwest 305 351 9,900 -400 Descending Cleveland Center
Thu 06:52:09 AM 41.4969 -81.3122 261° West 288 331 10,000 50 Climbing Cleveland Center
Thu 06:53:09 AM 41.4817 -81.4228 260° West 304 350 10,000 -150 Level Cleveland Center
Thu 06:54:09 AM 41.4661 -81.5253 259° West 305 351 9,700 -950 Descending Cleveland Center
Thu 06:55:09 AM 41.4550 -81.6111 260° West 256 295 8,100 -1,350 Descending Cleveland Center
Thu 06:56:09 AM 41.4397 -81.6828 254° West 218 251 7,000 -550 Descending Cleveland Center
Thu 06:57:09 AM 41.3975 -81.7319 221° Southwest 195 224 7,000 -520 Level Cleveland Center
Thu 06:58:16 AM 41.3553 -81.7892 226° Southwest 190 219 5,900 -1,276 Descending Cleveland Center
Thu 06:59:16 AM 41.3172 -81.8439 227° Southwest 212 244 4,300 -942 Descending Cleveland Center
Thu 07:00:17 AM 41.2833 -81.9011 232° Southwest 197 227 4,000 -148 Descending Cleveland Center
Thu 07:01:18 AM 41.2492 -81.9583 232° Southwest 191 220 4,000 -496 Level Cleveland Center
Thu 07:02:18 AM 41.2756 -82.0197 300° West 260 299 3,000 -545 Descending Cleveland Center
Thu 07:03:19 AM 41.3258 -81.9878 26° Northeast 232 267 2,900 -545 Descending Cleveland Center
Thu 07:04:19 AM 41.3642 -81.9306 48° Northeast 184 212 1,900 -893 Descending Cleveland Center
Thu 07:05:20 AM 41.3897 -81.8922 48° Northeast 123 142 1,100 -787 Descending Cleveland Center

Login

Don't have an account? Register now (free) for customized features, flight alerts, and more!